Terminal Aerodrome Forecast
Issued by NWS Indianapolis, IN

Home | Current Version | Previous Version | Text Only | Print | Product List | Glossary On
Versions: 1 2 3 4 5 6 7 8 9 10 11 12 13 14 15 16 17 18 19 20 21 22 23 24 25 26 27 28 29 30 31 32 33 34
000
FTUS43 KIND 262300
TAFIND
TAF
KIND 262323Z 2700/2806 03006KT P6SM OVC100
     FM270600 35008KT P6SM BKN015 OVC100
     FM271200 32009KT P6SM OVC015
     FM272000 30012KT P6SM OVC025=

USA.gov is the U.S. government's official web portal to all federal, state and local government web resources and services.